Almond, North Carolina
Current Conditions -  °F | °C
As of 2:35 PM on Friday 24 Oct 2014 (Local Time) from KRHP Reporting Station
Clear Clear  
Wind Chill: 19°   Ceiling: Unl
Heat Index: 19°   Visibility: 10mi
Dew Point:   Wind: 0mph
Humidity: 41%   Direction: NA
Pressure: 30.03"   Gusts: NA
Location:  35.37°N, 83.57°W
Report Text: KRHP 241835Z AUTO 00000KT 10SM CLR 19/06 A3003 RMK AO2 T01910057
Loading
Personal Weather Stations






























Interactive Weather Map
Tropical Storm Tracking
New forecast layout! Learn more

10-Day Weather Forecast

Advertisements
Track Severe Weather on mobile